Forside
METAR-TAF:

METAR-TAF

Lufthavne :

Ulan Bator, Mongoliet

Breddekreds: 47-55N, længdekreds: 106-52E, højde: 1306 m

Aktuelle vejr

Denne rapport blev lavet for 18 minutter siden, kl. 01:00 UTC
Vind stille
Temperatur -21°C
Fugtighed 70%
Tryk 1024 hPa
Sigt: 5000 m
røg

METAR: ZMUB 210100Z 00000MPS 5000NW FU NSC M21/M25 Q1024 NOSIG RMK QFE659.7 67 NW MO

Tid: 09:18 (01:18 UTC)

Vejrudsigter

Denne rapport blev lavet for 2 timer og 44 minutter siden, kl. 22:34 UTC
Foreløbig gælder fra 21 på 00 UTC til 22 på 06 UTC
Vind 4 kt fra varierende retninger
Sigt: 6000 m
Spredte skyer i en højde af 10000 ft

TAF: ZMUB 202234Z 2100/2206 VRB02MPS 6000 SCT100 TXM01/2107Z TNM23/2123Z

Vejrobservationer og prognoser fra mere end 4000 lufthavne (METAR og TAF).

De gule og røde prikker repræsenterer de meteorologiske stationer.

Flyt musen over at se navnet på stationen.

Så klik over at se vejr observationer og prognoser.

At skifte det kort: Klik på de grønne knapper med et sort kors for at zoome ind; på den grønne knap med en bindestreg for at zoome ud; eller på de grønne pile for tilstødende kort.


METAR-TAF: